createdAt,value
2018-08-03T00:06:17.533Z,21.46
2018-08-03T00:12:02.214Z,21.39
2018-08-03T00:14:35.023Z,21.43
2018-08-03T00:17:09.592Z,21.40
2018-08-03T00:19:40.151Z,21.39
2018-08-03T00:22:13.138Z,21.35
2018-08-03T00:24:45.058Z,21.34
2018-08-03T00:30:26.490Z,21.29
2018-08-03T00:32:57.003Z,21.22
2018-08-03T00:35:28.014Z,21.17
2018-08-03T00:37:58.446Z,21.14
2018-08-03T00:40:28.411Z,21.15
2018-08-03T00:42:58.930Z,21.12
2018-08-03T00:45:29.832Z,21.10
2018-08-03T00:48:00.098Z,21.07
2018-08-03T00:50:31.815Z,21.05
2018-08-03T00:53:03.258Z,21.04
2018-08-03T00:55:33.638Z,21.05
2018-08-03T00:58:04.326Z,21.09
2018-08-03T01:00:36.620Z,21.03
2018-08-03T01:03:43.996Z,21.04
2018-08-03T01:06:15.304Z,21.02
2018-08-03T01:08:45.945Z,20.96
2018-08-03T01:11:18.219Z,20.93
2018-08-03T01:13:48.235Z,20.93
2018-08-03T01:16:26.533Z,20.96
2018-08-03T01:19:26.459Z,20.85
2018-08-03T01:21:58.591Z,20.75
2018-08-03T01:24:29.161Z,20.75
2018-08-03T01:26:59.430Z,20.74
2018-08-03T01:29:33.563Z,20.75
2018-08-03T01:32:07.965Z,20.78
2018-08-03T01:34:42.761Z,20.76
2018-08-03T01:37:13.232Z,20.82
2018-08-03T01:39:44.061Z,20.71
2018-08-03T01:42:14.336Z,20.63
2018-08-03T01:44:45.097Z,20.60
2018-08-03T01:49:56.192Z,20.53
2018-08-03T01:52:26.488Z,20.47
2018-08-03T01:54:59.897Z,20.40
2018-08-03T01:57:31.224Z,20.39
2018-08-03T02:00:01.983Z,20.32
2018-08-03T02:02:32.262Z,20.32
2018-08-03T02:05:06.836Z,20.26
2018-08-03T02:07:37.647Z,20.24
2018-08-03T02:10:07.865Z,20.25
2018-08-03T02:12:38.499Z,20.17
2018-08-03T02:18:04.029Z,20.16
2018-08-03T02:20:34.273Z,20.14
2018-08-03T02:23:04.474Z,20.12
2018-08-03T02:25:35.624Z,20.08
2018-08-03T02:28:05.959Z,20.04
2018-08-03T02:30:36.593Z,20.08
2018-08-03T02:33:06.929Z,20.04
2018-08-03T02:35:37.120Z,20.02
2018-08-03T02:38:08.016Z,20.08
2018-08-03T02:40:38.191Z,20.11
2018-08-03T02:43:10.711Z,20.11
2018-08-03T02:45:40.967Z,20.10
2018-08-03T02:48:12.503Z,20.10
2018-08-03T02:50:43.795Z,20.08
2018-08-03T02:53:16.178Z,20.05
2018-08-03T02:55:46.492Z,20.03
2018-08-03T02:58:17.024Z,19.98
2018-08-03T03:00:47.109Z,19.91
2018-08-03T03:03:19.544Z,19.87
2018-08-03T03:05:49.840Z,19.87
2018-08-03T03:08:20.125Z,19.90
2018-08-03T03:10:50.192Z,19.92
2018-08-03T03:13:23.954Z,19.95
2018-08-03T03:15:54.053Z,19.86
2018-08-03T03:18:24.334Z,19.81
2018-08-03T03:20:55.149Z,19.76
2018-08-03T03:26:20.906Z,19.81
2018-08-03T03:31:44.850Z,19.79
2018-08-03T03:34:17.024Z,19.74
2018-08-03T03:36:47.472Z,19.72
2018-08-03T03:39:17.784Z,19.67
2018-08-03T03:41:47.891Z,19.61
2018-08-03T03:44:41.074Z,19.64
2018-08-03T03:47:12.705Z,19.61
2018-08-03T03:49:45.220Z,19.59
2018-08-03T03:52:23.290Z,19.58
2018-08-03T03:54:54.597Z,19.67
2018-08-03T03:57:25.709Z,19.64
2018-08-03T03:59:58.613Z,19.68
2018-08-03T04:02:28.953Z,19.77
2018-08-03T04:09:41.444Z,19.71
2018-08-03T04:12:11.620Z,19.67
2018-08-03T04:14:42.237Z,19.65
2018-08-03T04:17:12.682Z,19.68
2018-08-03T04:19:43.293Z,19.65
2018-08-03T04:22:21.302Z,19.71
2018-08-03T04:24:55.092Z,19.69
2018-08-03T04:27:40.766Z,19.77
2018-08-03T04:30:10.989Z,19.78
2018-08-03T04:32:41.137Z,19.79
2018-08-03T04:35:12.964Z,19.75
2018-08-03T04:37:44.058Z,19.73
2018-08-03T04:40:14.743Z,19.69
2018-08-03T04:42:45.184Z,19.73
2018-08-03T04:45:18.080Z,19.72
2018-08-03T04:47:48.930Z,19.75
2018-08-03T04:50:45.132Z,19.82
2018-08-03T04:53:21.813Z,19.85
2018-08-03T04:55:55.502Z,19.89
2018-08-03T04:58:30.084Z,19.85
2018-08-03T05:01:03.104Z,19.90
2018-08-03T05:03:42.896Z,19.93
2018-08-03T05:06:16.976Z,19.97
2018-08-03T05:08:50.111Z,20.08
2018-08-03T05:11:34.156Z,20.16
2018-08-03T05:14:45.233Z,20.15
2018-08-03T05:17:19.717Z,20.23
2018-08-03T05:19:52.406Z,20.32
2018-08-03T05:28:06.000Z,19.76
2018-08-03T05:30:49.259Z,20.65
2018-08-03T05:33:29.294Z,20.69
2018-08-03T05:36:04.180Z,20.72
2018-08-03T05:38:44.271Z,20.76
2018-08-03T05:41:20.316Z,20.84
2018-08-03T05:46:41.852Z,21.00
2018-08-03T05:49:14.095Z,21.08
2018-08-03T05:51:47.217Z,21.17
2018-08-03T05:54:17.668Z,21.26
2018-08-03T05:56:48.024Z,21.37
2018-08-03T05:59:20.204Z,21.47
2018-08-03T06:01:51.084Z,21.59
2018-08-03T06:04:22.085Z,21.70
2018-08-03T06:06:52.428Z,21.81
2018-08-03T06:09:22.420Z,21.94
2018-08-03T06:11:53.179Z,22.05
2018-08-03T06:14:24.810Z,22.15
2018-08-03T06:16:55.619Z,22.29
2018-08-03T06:19:43.290Z,22.37
2018-08-03T06:22:13.827Z,22.54
2018-08-03T06:24:43.924Z,22.65
2018-08-03T06:27:21.564Z,22.79
2018-08-03T06:29:52.775Z,22.99
2018-08-03T06:32:33.659Z,23.15
2018-08-03T06:35:05.133Z,23.28
2018-08-03T06:42:59.553Z,23.88
2018-08-03T06:45:31.075Z,23.95
2018-08-03T06:48:02.398Z,23.97
2018-08-03T06:50:41.105Z,24.15
2018-08-03T06:53:21.342Z,24.28
2018-08-03T06:55:55.930Z,24.43
2018-08-03T06:58:35.678Z,24.61
2018-08-03T07:01:19.720Z,24.45
2018-08-03T07:03:57.609Z,24.88
2018-08-03T07:06:35.369Z,24.99
2018-08-03T07:09:21.149Z,25.07
2018-08-03T07:12:02.902Z,25.22
2018-08-03T07:14:35.792Z,25.52
2018-08-03T07:17:17.044Z,25.48
2018-08-03T07:19:53.962Z,25.58
2018-08-03T07:22:29.421Z,25.71
2018-08-03T07:25:04.037Z,25.69
2018-08-03T07:27:45.613Z,25.75
2018-08-03T07:30:28.496Z,25.93
2018-08-03T07:35:50.911Z,26.02
2018-08-03T07:38:29.369Z,26.09
2018-08-03T07:43:52.701Z,26.36
2018-08-03T07:46:28.368Z,26.49
2018-08-03T07:49:07.568Z,26.66
2018-08-03T07:54:36.032Z,26.96
2018-08-03T07:59:56.494Z,27.22
2018-08-03T08:02:41.159Z,27.33
2018-08-03T08:05:16.368Z,27.43
2018-08-03T08:07:46.584Z,27.61
2018-08-03T08:10:42.250Z,27.76
2018-08-03T08:13:20.966Z,27.97
2018-08-03T08:16:07.968Z,28.10
2018-08-03T08:18:44.206Z,28.25
2018-08-03T08:21:15.396Z,28.36
2018-08-03T08:23:53.232Z,28.58
2018-08-03T08:26:33.221Z,28.70
2018-08-03T08:29:18.919Z,29.30
2018-08-03T08:41:38.569Z,32.71
2018-08-03T08:46:57.393Z,33.09
2018-08-03T08:55:44.408Z,33.72
2018-08-03T08:58:30.676Z,34.20
2018-08-03T09:01:15.167Z,34.50
2018-08-03T09:04:03.209Z,34.61
2018-08-03T09:06:57.531Z,34.59
2018-08-03T09:09:29.938Z,35.24
2018-08-03T09:12:02.933Z,35.53
2018-08-03T09:14:43.290Z,35.88
2018-08-03T09:20:27.524Z,35.96
2018-08-03T09:23:05.643Z,35.86
2018-08-03T09:34:38.996Z,36.73
2018-08-03T09:37:15.980Z,37.52
2018-08-03T09:45:58.369Z,37.29
2018-08-03T09:51:31.256Z,38.61
2018-08-03T09:54:01.726Z,38.39
2018-08-03T09:56:40.510Z,38.78
2018-08-03T09:59:31.376Z,38.48
2018-08-03T10:02:02.032Z,38.22
2018-08-03T10:04:42.304Z,38.51
2018-08-03T10:10:07.161Z,37.36
2018-08-03T10:12:41.409Z,38.38
2018-08-03T10:15:23.598Z,38.15
2018-08-03T10:20:56.508Z,36.91
2018-08-03T10:23:29.146Z,36.82
2018-08-03T10:25:59.664Z,35.96
2018-08-03T10:28:29.745Z,35.77
2018-08-03T10:31:00.506Z,36.04
2018-08-03T10:33:34.722Z,35.96
2018-08-03T10:36:14.528Z,35.41
2018-08-03T10:38:48.520Z,35.08
2018-08-03T10:41:24.014Z,34.77
2018-08-03T10:43:56.477Z,34.28
2018-08-03T10:46:26.496Z,34.15
2018-08-03T10:48:56.576Z,34.38
2018-08-03T10:51:44.236Z,34.26
2018-08-03T10:54:18.277Z,34.11
2018-08-03T10:56:58.005Z,33.87
2018-08-03T10:59:28.233Z,33.82
2018-08-03T11:01:59.026Z,33.79
2018-08-03T11:04:29.957Z,33.89
2018-08-03T11:07:00.686Z,33.90
2018-08-03T11:09:38.318Z,33.68
2018-08-03T11:12:20.786Z,34.17
2018-08-03T11:15:01.611Z,34.69
2018-08-03T11:20:27.331Z,35.44
2018-08-03T11:23:03.735Z,35.21
2018-08-03T11:25:41.869Z,35.07
2018-08-03T11:28:53.316Z,35.08
2018-08-03T11:31:35.876Z,35.03
2018-08-03T11:34:18.017Z,34.76
2018-08-03T11:36:48.662Z,34.78
2018-08-03T11:39:21.424Z,34.87
2018-08-03T11:41:51.505Z,35.02
2018-08-03T11:44:31.419Z,34.69
2018-08-03T11:47:18.587Z,34.64
2018-08-03T11:52:41.842Z,35.18
2018-08-03T11:55:13.409Z,35.61
2018-08-03T11:57:45.919Z,35.44
2018-08-03T12:09:57.715Z,34.95
2018-08-03T12:12:29.171Z,34.50
2018-08-03T12:15:01.218Z,34.22
2018-08-03T12:20:50.925Z,33.91
2018-08-03T12:23:33.291Z,34.23
2018-08-03T12:26:11.643Z,34.55
2018-08-03T12:28:53.536Z,34.45
2018-08-03T12:31:38.270Z,34.12
2018-08-03T12:34:16.570Z,33.91
2018-08-03T12:36:57.396Z,34.25
2018-08-03T12:39:27.336Z,34.54
2018-08-03T12:42:00.082Z,34.71
2018-08-03T12:44:30.693Z,35.13
2018-08-03T12:47:03.491Z,35.20
2018-08-03T12:49:34.322Z,35.41
2018-08-03T12:52:06.892Z,35.56
2018-08-03T12:54:45.742Z,35.80
2018-08-03T12:57:19.680Z,35.46
2018-08-03T12:59:51.483Z,34.89
2018-08-03T13:02:25.992Z,34.22
2018-08-03T13:05:00.011Z,33.77
2018-08-03T13:07:31.107Z,34.18
2018-08-03T13:10:02.936Z,34.72
2018-08-03T13:13:03.372Z,34.68
2018-08-03T13:15:36.122Z,34.67
2018-08-03T13:18:19.387Z,34.44
2018-08-03T13:20:52.865Z,35.84
2018-08-03T13:23:24.445Z,36.87
2018-08-03T13:28:59.020Z,39.35
2018-08-03T13:31:36.949Z,40.83
2018-08-03T13:34:17.804Z,40.02
2018-08-03T13:36:59.726Z,38.87
2018-08-03T13:39:44.473Z,37.55
2018-08-03T13:42:20.128Z,36.30
2018-08-03T13:44:57.794Z,35.34
2018-08-03T13:47:28.460Z,35.11
2018-08-03T13:50:08.145Z,37.38
2018-08-03T13:52:50.680Z,40.92
2018-08-03T13:55:28.975Z,43.26
2018-08-03T13:58:06.441Z,44.41
2018-08-03T14:03:52.189Z,44.19
2018-08-03T14:06:39.444Z,44.66
2018-08-03T14:09:30.339Z,44.76
2018-08-03T14:15:29.583Z,45.44
2018-08-03T14:18:02.211Z,45.38
2018-08-03T14:20:32.378Z,44.68
2018-08-03T14:23:16.393Z,46.58
2018-08-03T14:25:49.924Z,46.78
2018-08-03T14:28:23.420Z,45.81
2018-08-03T14:31:01.803Z,45.85
2018-08-03T14:33:42.781Z,45.16
2018-08-03T14:36:20.684Z,45.40
2018-08-03T14:39:13.360Z,44.73
2018-08-03T14:44:30.905Z,44.66
2018-08-03T14:53:02.980Z,41.98
2018-08-03T14:58:36.073Z,44.46
2018-08-03T15:04:27.862Z,45.38
2018-08-03T15:07:01.933Z,45.53
2018-08-03T15:18:35.090Z,44.15
2018-08-03T15:21:16.514Z,43.60
2018-08-03T15:24:04.735Z,43.21
2018-08-03T15:27:02.618Z,43.10
2018-08-03T15:41:12.766Z,43.75
2018-08-03T15:43:50.630Z,42.93
2018-08-03T15:49:37.230Z,42.66
2018-08-03T15:52:27.422Z,42.61
2018-08-03T15:57:48.064Z,43.05
2018-08-03T16:00:25.303Z,42.36
2018-08-03T16:08:54.198Z,39.29
2018-08-03T16:20:30.672Z,36.31
2018-08-03T16:23:24.764Z,36.00
2018-08-03T16:29:21.096Z,35.23
2018-08-03T16:43:52.305Z,35.38
2018-08-03T16:46:40.152Z,35.22
2018-08-03T16:49:28.184Z,35.07
2018-08-03T16:52:02.834Z,35.03
2018-08-03T16:54:37.462Z,34.73
2018-08-03T16:57:12.278Z,34.44
2018-08-03T16:59:42.828Z,34.38
2018-08-03T17:02:13.737Z,34.21
2018-08-03T17:04:45.717Z,34.02
2018-08-03T17:07:20.451Z,33.92
2018-08-03T17:09:50.454Z,33.82
2018-08-03T17:12:25.391Z,33.66
2018-08-03T17:14:58.224Z,33.46
2018-08-03T17:17:29.210Z,33.35
2018-08-03T17:19:59.740Z,33.33
2018-08-03T17:22:31.361Z,33.23
2018-08-03T17:25:01.519Z,33.00
2018-08-03T17:27:34.865Z,32.87
2018-08-03T17:30:05.954Z,32.66
2018-08-03T17:32:36.613Z,32.58
2018-08-03T17:35:06.533Z,32.49
2018-08-03T17:37:37.142Z,32.56
2018-08-03T17:40:07.733Z,32.43
2018-08-03T17:42:38.209Z,32.21
2018-08-03T17:45:08.285Z,32.11
2018-08-03T17:47:39.458Z,32.00
2018-08-03T17:50:09.486Z,31.99
2018-08-03T17:52:39.456Z,31.94
2018-08-03T17:55:09.411Z,31.97
2018-08-03T17:57:40.539Z,31.83
2018-08-03T18:00:10.539Z,31.76
2018-08-03T18:02:40.351Z,31.68
2018-08-03T18:05:10.440Z,31.60
2018-08-03T18:09:23.559Z,31.59
2018-08-03T18:11:53.580Z,31.43
2018-08-03T18:14:23.683Z,31.32
2018-08-03T18:16:54.616Z,31.11
2018-08-03T18:19:25.262Z,31.00
2018-08-03T18:21:55.392Z,30.79
2018-08-03T18:24:25.305Z,30.59
2018-08-03T18:26:57.387Z,30.40
2018-08-03T18:29:28.291Z,30.24
2018-08-03T18:32:01.503Z,30.09
2018-08-03T18:34:40.732Z,29.93
2018-08-03T18:37:11.277Z,29.73
2018-08-03T18:39:41.557Z,29.58
2018-08-03T18:42:11.715Z,29.48
2018-08-03T18:44:43.995Z,29.45
2018-08-03T18:47:15.904Z,29.33
2018-08-03T18:49:46.225Z,29.19
2018-08-03T18:52:16.581Z,29.09
2018-08-03T18:54:49.963Z,28.96
2018-08-03T18:57:20.498Z,28.77
2018-08-03T18:59:51.628Z,28.65
2018-08-03T19:02:23.020Z,28.57
2018-08-03T19:04:53.498Z,28.45
2018-08-03T19:07:23.624Z,28.30
2018-08-03T19:10:00.670Z,28.11
2018-08-03T19:12:30.923Z,28.02
2018-08-03T19:15:01.962Z,27.94
2018-08-03T19:17:32.090Z,27.88
2018-08-03T19:20:02.515Z,27.74
2018-08-03T19:22:32.979Z,27.59
2018-08-03T19:25:03.468Z,27.45
2018-08-03T19:27:33.385Z,27.39
2018-08-03T19:30:03.405Z,27.36
2018-08-03T19:32:34.671Z,27.17
2018-08-03T19:35:04.901Z,27.07
2018-08-03T19:37:35.009Z,26.98
2018-08-03T19:40:05.450Z,26.90
2018-08-03T19:42:35.453Z,26.86
2018-08-03T19:45:05.808Z,26.76
2018-08-03T19:47:36.039Z,26.70
2018-08-03T19:50:06.352Z,26.61
2018-08-03T19:52:36.481Z,26.50
2018-08-03T19:55:06.995Z,26.46
2018-08-03T19:57:38.397Z,26.45
2018-08-03T20:00:10.927Z,26.36
2018-08-03T20:02:41.526Z,26.30
2018-08-03T20:05:11.893Z,26.23
2018-08-03T20:07:42.260Z,26.22
2018-08-03T20:10:12.231Z,26.14
2018-08-03T20:12:42.783Z,26.07
2018-08-03T20:15:13.189Z,25.99
2018-08-03T20:17:43.389Z,25.95
2018-08-03T20:20:13.426Z,25.84
2018-08-03T20:22:43.648Z,25.83
2018-08-03T20:25:16.025Z,25.79
2018-08-03T20:27:45.913Z,25.69
2018-08-03T20:30:16.056Z,25.70
2018-08-03T20:32:45.962Z,25.64
2018-08-03T20:35:16.299Z,25.63
2018-08-03T20:37:46.254Z,25.49
2018-08-03T20:40:16.278Z,25.40
2018-08-03T20:42:46.326Z,25.35
2018-08-03T20:45:16.557Z,25.29
2018-08-03T20:47:46.456Z,25.22
2018-08-03T20:50:16.504Z,25.25
2018-08-03T20:52:46.936Z,25.14
2018-08-03T20:55:17.924Z,25.01
2018-08-03T20:57:49.244Z,24.96
2018-08-03T21:00:20.642Z,24.87
2018-08-03T21:02:52.239Z,24.79
2018-08-03T21:05:22.429Z,24.74
2018-08-03T21:07:52.663Z,24.67
2018-08-03T21:10:27.568Z,24.60
2018-08-03T21:12:57.585Z,24.55
2018-08-03T21:15:27.503Z,24.53
2018-08-03T21:17:58.642Z,24.46
2018-08-03T21:20:28.539Z,24.45
2018-08-03T21:22:58.463Z,24.43
2018-08-03T21:25:28.327Z,24.34
2018-08-03T21:27:58.451Z,24.36
2018-08-03T21:30:28.267Z,24.31
2018-08-03T21:32:58.444Z,24.22
2018-08-03T21:35:28.430Z,24.20
2018-08-03T21:37:59.318Z,24.17
2018-08-03T21:40:30.139Z,24.09
2018-08-03T21:43:00.437Z,24.02
2018-08-03T21:45:35.375Z,24.02
2018-08-03T21:48:05.384Z,23.93
2018-08-03T21:50:35.393Z,23.89
2018-08-03T21:53:06.236Z,23.86
2018-08-03T21:55:36.441Z,23.80
2018-08-03T21:58:06.397Z,23.75
2018-08-03T22:00:36.425Z,23.75
2018-08-03T22:03:07.588Z,23.74
2018-08-03T22:05:37.490Z,23.62
2018-08-03T22:08:08.442Z,23.58
2018-08-03T22:10:39.062Z,23.57
2018-08-03T22:13:09.762Z,23.47
2018-08-03T22:15:41.090Z,23.44
2018-08-03T22:18:13.716Z,23.44
2018-08-03T22:20:44.074Z,23.36
2018-08-03T22:23:14.008Z,23.31
2018-08-03T22:25:44.625Z,23.30
2018-08-03T22:28:20.606Z,23.27
2018-08-03T22:30:51.147Z,23.22
2018-08-03T22:33:21.454Z,23.18
2018-08-03T22:35:51.796Z,23.19
2018-08-03T22:38:21.886Z,23.19
2018-08-03T22:40:52.623Z,23.21
2018-08-03T22:43:23.150Z,23.20
2018-08-03T22:45:53.070Z,23.20
2018-08-03T22:48:24.321Z,23.16
2018-08-03T22:50:54.194Z,23.19
2018-08-03T22:53:24.161Z,23.26
2018-08-03T22:55:54.159Z,23.21
2018-08-03T22:58:24.406Z,23.18
2018-08-03T23:00:56.316Z,23.13
2018-08-03T23:03:26.238Z,23.14
2018-08-03T23:05:56.848Z,23.06
2018-08-03T23:08:26.815Z,23.09
2018-08-03T23:10:56.744Z,23.03
2018-08-03T23:13:28.613Z,23.01
2018-08-03T23:15:58.532Z,23.00
2018-08-03T23:18:28.747Z,23.01
2018-08-03T23:20:58.616Z,23.03
2018-08-03T23:23:28.671Z,23.03
2018-08-03T23:25:58.688Z,22.92
2018-08-03T23:28:29.971Z,22.88
2018-08-03T23:30:59.953Z,22.81
2018-08-03T23:33:29.849Z,22.75
2018-08-03T23:35:59.695Z,22.75
2018-08-03T23:38:29.949Z,22.75
2018-08-03T23:40:59.858Z,22.68
2018-08-03T23:43:29.723Z,22.70
2018-08-03T23:45:59.614Z,22.63
2018-08-03T23:48:37.045Z,22.58
2018-08-03T23:51:06.896Z,22.52
2018-08-03T23:53:37.137Z,22.54
2018-08-03T23:56:07.200Z,22.49
2018-08-03T23:58:39.765Z,22.49
